Time;durP1;ratioP1;P1;durP2;ratioP2;P2;SDS_P1;SDS_P2;PMS_P1;PMS_P2;Temp;Humidity;BMP_temperature;BMP_pressure;BME280_temperature;BME280_humidity;BME280_pressure;Samples;Min_cycle;Max_cycle;Signal;HPM_P1;HPM_P2
2023/01/22 00:01:09;;;;;;;19.33;2.35;;;;;;;21.98;56.36;100119.09;7312748;19;129450;-39
2023/01/22 00:03:35;;;;;;;26.95;3.13;;;;;;;21.96;56.48;100114.81;7310720;19;128910;-39
2023/01/22 00:06:01;;;;;;;18.77;2.10;;;;;;;21.97;56.01;100113.03;7310035;19;129754;-37
2023/01/22 00:08:26;;;;;;;29.43;3.20;;;;;;;21.94;56.30;100114.13;7313908;19;129538;-40
2023/01/22 00:10:53;;;;;;;20.20;2.33;;;;;;;21.95;56.10;100123.63;7311198;19;129877;-38
2023/01/22 00:13:21;;;;;;;28.83;2.97;;;;;;;21.94;56.39;100123.75;7312127;19;129692;-38
2023/01/22 00:15:47;;;;;;;27.35;2.95;;;;;;;21.88;56.98;100114.63;7310576;19;129631;-35
2023/01/22 00:18:13;;;;;;;21.48;2.53;;;;;;;21.88;56.82;100122.47;7310926;19;130314;-38
2023/01/22 00:20:38;;;;;;;18.60;2.20;;;;;;;21.85;56.96;100125.34;7310856;19;130006;-37
2023/01/22 00:23:04;;;;;;;22.03;2.50;;;;;;;21.84;56.81;100118.47;7311175;19;129355;-38
2023/01/22 00:25:29;;;;;;;28.45;3.38;;;;;;;21.72;57.10;100105.53;7310851;19;129524;-37
2023/01/22 00:27:55;;;;;;;15.50;1.90;;;;;;;21.81;56.85;100125.75;7311448;19;130462;-36
2023/01/22 00:30:20;;;;;;;21.83;2.73;;;;;;;21.80;57.02;100117.06;7310381;19;129478;-39
2023/01/22 00:32:46;;;;;;;41.42;4.53;;;;;;;21.81;57.14;100123.97;7309816;19;129059;-35
2023/01/22 00:35:12;;;;;;;37.57;4.67;;;;;;;21.78;56.80;100118.97;7309944;19;129441;-39
2023/01/22 00:37:37;;;;;;;49.17;5.75;;;;;;;21.77;56.99;100122.56;7310898;19;130368;-38
2023/01/22 00:40:03;;;;;;;22.63;2.47;;;;;;;21.75;56.68;100119.19;7308497;19;130932;-38
2023/01/22 00:42:28;;;;;;;31.33;3.22;;;;;;;21.75;56.88;100124.44;7311197;19;129174;-40
2023/01/22 00:44:54;;;;;;;19.53;2.50;;;;;;;21.71;57.39;100109.97;7309849;19;130174;-36
2023/01/22 00:47:19;;;;;;;35.97;3.40;;;;;;;21.72;57.91;100124.69;7308966;19;129506;-37
2023/01/22 00:49:44;;;;;;;20.02;2.08;;;;;;;21.60;57.53;100115.22;7311599;19;129049;-40
2023/01/22 00:52:10;;;;;;;26.73;3.53;;;;;;;21.68;57.22;100128.50;7311171;19;129119;-36
2023/01/22 00:54:35;;;;;;;19.67;2.60;;;;;;;21.70;57.20;100139.69;7307436;19;129826;-35
2023/01/22 00:57:00;;;;;;;30.58;3.63;;;;;;;21.71;57.82;100138.75;7308937;19;129232;-35
2023/01/22 00:59:26;;;;;;;22.87;2.43;;;;;;;21.70;57.33;100142.31;7307980;19;128857;-39
2023/01/22 01:01:51;;;;;;;7.93;1.23;;;;;;;21.69;57.44;100151.13;7312200;19;129214;-40
2023/01/22 01:04:16;;;;;;;17.65;2.35;;;;;;;21.64;57.49;100142.81;7306427;19;130117;-37
2023/01/22 01:06:42;;;;;;;23.58;2.55;;;;;;;21.75;57.01;100148.00;7309088;19;129792;-38
2023/01/22 01:09:07;;;;;;;26.50;2.93;;;;;;;21.88;57.09;100155.69;7308658;19;129007;-39
2023/01/22 01:11:32;;;;;;;29.55;3.45;;;;;;;21.98;56.75;100146.94;7311308;19;129176;-39
2023/01/22 01:13:58;;;;;;;16.95;1.85;;;;;;;22.10;56.26;100150.31;7306838;19;129668;-38
2023/01/22 01:16:28;;;;;;;18.33;2.17;;;;;;;22.24;55.35;100151.75;7309152;19;130860;-39
2023/01/22 01:19:03;;;;;;;42.80;4.13;;;;;;;22.39;55.52;100146.06;7307235;19;129296;-39
2023/01/22 01:21:29;;;;;;;26.50;2.75;;;;;;;22.54;54.40;100149.19;7310458;19;129209;-36
2023/01/22 01:23:56;;;;;;;47.95;4.97;;;;;;;22.61;54.48;100139.84;7306900;19;129415;-40
2023/01/22 01:26:21;;;;;;;;;;;;;;;22.61;53.85;100129.34;7309107;19;129441;-38
2023/01/22 01:28:47;;;;;;;31.85;3.50;;;;;;;22.85;54.11;100148.16;7309981;19;129138;-39
2023/01/22 01:31:14;;;;;;;19.10;2.17;;;;;;;22.80;54.16;100145.13;7309009;19;128997;-38
2023/01/22 01:33:41;;;;;;;33.70;3.95;;;;;;;22.83;54.08;100150.09;7308206;19;129914;-39
2023/01/22 01:36:14;;;;;;;17.27;1.90;;;;;;;22.69;54.53;100142.63;7307698;19;129724;-39
2023/01/22 01:38:40;;;;;;;16.02;2.22;;;;;;;22.66;54.51;100140.25;7308907;19;129254;-38
2023/01/22 01:41:07;;;;;;;32.03;3.25;;;;;;;22.58;55.06;100140.06;7308936;19;129141;-36
2023/01/22 01:43:33;;;;;;;;;;;;;;;22.42;54.66;100124.00;7308578;19;129245;-38
2023/01/22 01:45:59;;;;;;;19.25;1.98;;;;;;;22.49;55.38;100135.63;7307313;19;131439;-39
2023/01/22 01:48:38;;;;;;;18.45;2.08;;;;;;;22.44;55.18;100129.94;7310313;19;128949;-42
2023/01/22 01:51:15;;;;;;;33.05;3.38;;;;;;;22.36;55.48;100141.06;7307869;19;129090;-38
2023/01/22 01:53:41;;;;;;;;;;;;;;;22.27;55.89;100135.78;7308485;19;130304;-40
2023/01/22 01:56:14;;;;;;;17.85;2.00;;;;;;;22.22;56.70;100136.19;7307515;19;129437;-40
2023/01/22 01:58:42;;;;;;;19.23;2.25;;;;;;;22.19;56.13;100131.22;7309484;19;129152;-37
2023/01/22 02:01:12;;;;;;;32.15;3.25;;;;;;;22.15;56.29;100142.09;7307199;19;129991;-38
2023/01/22 02:03:39;;;;;;;35.60;4.03;;;;;;;22.10;56.61;100139.03;7306790;19;129363;-38
2023/01/22 02:06:05;;;;;;;44.20;4.32;;;;;;;22.07;56.06;100140.09;7305564;19;129922;-39
2023/01/22 02:08:31;;;;;;;16.07;1.90;;;;;;;21.94;56.09;100135.06;7309583;19;128904;-38
2023/01/22 02:10:57;;;;;;;16.87;2.10;;;;;;;21.88;57.12;100127.72;7307594;19;129258;-37
2023/01/22 02:13:27;;;;;;;20.27;2.10;;;;;;;21.96;57.22;100155.88;7308348;19;129823;-37
2023/01/22 02:15:53;;;;;;;22.95;2.53;;;;;;;21.90;56.91;100153.75;7306262;19;130682;-39
2023/01/22 02:18:18;;;;;;;22.00;2.40;;;;;;;21.87;56.67;100165.34;7309124;19;129504;-38
2023/01/22 02:20:52;;;;;;;42.97;4.93;;;;;;;21.81;57.67;100160.63;7308295;19;129403;-39
2023/01/22 02:23:17;;;;;;;30.50;3.20;;;;;;;21.81;57.56;100167.63;7313933;19;131207;-36
2023/01/22 02:25:43;;;;;;;50.10;5.03;;;;;;;21.77;57.56;100166.22;7314267;19;129503;-34
2023/01/22 02:28:08;;;;;;;16.83;2.00;;;;;;;21.77;57.65;100172.28;7315459;19;129472;-38
2023/01/22 02:30:33;;;;;;;25.27;3.10;;;;;;;21.77;57.25;100169.66;7315319;19;129491;-37
2023/01/22 02:32:59;;;;;;;22.30;2.35;;;;;;;21.76;57.69;100170.63;7312606;19;129351;-39
2023/01/22 02:35:24;;;;;;;73.43;7.43;;;;;;;21.70;57.30;100167.66;7313041;19;129544;-38
2023/01/22 02:37:49;;;;;;;14.83;1.70;;;;;;;21.69;57.84;100166.81;7315114;19;129643;-38
2023/01/22 02:40:15;;;;;;;20.38;2.25;;;;;;;21.67;58.24;100176.59;7313670;19;129215;-39
2023/01/22 02:42:40;;;;;;;29.93;2.97;;;;;;;21.57;58.10;100152.13;7312545;19;130651;-37
2023/01/22 02:45:06;;;;;;;28.33;3.27;;;;;;;21.63;57.93;100172.56;7315323;19;129696;-39
2023/01/22 02:47:34;;;;;;;18.55;2.03;;;;;;;21.60;58.06;100178.03;7313119;19;129753;-38
2023/01/22 02:50:00;;;;;;;14.65;1.60;;;;;;;21.59;58.31;100181.63;7315484;19;129016;-38
2023/01/22 02:52:25;;;;;;;23.05;2.42;;;;;;;21.65;57.65;100170.63;7313594;19;130618;-39
2023/01/22 02:54:51;;;;;;;22.70;2.47;;;;;;;21.80;57.08;100169.41;7313093;19;130371;-39
2023/01/22 02:57:16;;;;;;;24.05;2.83;;;;;;;21.90;57.27;100170.31;7312404;19;129442;-40
2023/01/22 02:59:41;;;;;;;22.40;2.57;;;;;;;22.05;56.33;100180.47;7310370;19;130899;-37
2023/01/22 03:02:07;;;;;;;63.33;6.97;;;;;;;22.24;55.92;100173.56;7313123;19;130498;-35
2023/01/22 03:04:32;;;;;;;16.17;1.77;;;;;;;22.30;55.34;100170.41;7311871;19;129209;-38
2023/01/22 03:06:57;;;;;;;15.97;1.80;;;;;;;22.42;55.25;100176.38;7313806;19;129387;-39
2023/01/22 03:09:23;;;;;;;21.07;2.33;;;;;;;22.54;55.47;100170.16;7312580;19;129054;-36
2023/01/22 03:11:48;;;;;;;37.88;3.70;;;;;;;22.65;54.64;100172.66;7314640;19;129504;-37
2023/01/22 03:22:28;;;;;;;15.00;1.90;;;;;;;22.75;54.03;100191.88;7314289;19;128927;-37
2023/01/22 03:24:53;;;;;;;20.95;2.20;;;;;;;22.65;54.71;100183.97;7311810;19;129721;-38
2023/01/22 03:27:20;;;;;;;24.13;2.53;;;;;;;22.59;54.96;100181.06;7312720;19;129696;-40
2023/01/22 03:29:46;;;;;;;22.42;2.50;;;;;;;22.52;54.82;100191.22;7312717;19;129229;-38
2023/01/22 03:32:12;;;;;;;39.25;3.67;;;;;;;22.49;55.26;100185.41;7313346;19;129451;-41
2023/01/22 03:34:38;;;;;;;14.32;1.77;;;;;;;22.38;56.01;100190.72;7308783;19;129609;-37
2023/01/22 03:37:05;;;;;;;36.80;3.42;;;;;;;22.35;55.82;100185.72;7312628;19;128835;-38
2023/01/22 03:39:31;;;;;;;7.07;1.10;;;;;;;22.30;56.20;100193.16;7310712;19;129623;-38
2023/01/22 03:41:56;;;;;;;18.75;2.13;;;;;;;22.20;56.19;100182.63;7314490;19;129340;-38
2023/01/22 03:44:22;;;;;;;14.93;1.57;;;;;;;22.11;55.92;100177.34;7309167;19;129744;-38
2023/01/22 03:46:47;;;;;;;27.80;2.60;;;;;;;22.13;56.09;100196.38;7312719;19;129154;-38
2023/01/22 03:49:13;;;;;;;27.30;2.87;;;;;;;22.08;56.30;100199.34;7310901;19;130091;-39
2023/01/22 03:51:38;;;;;;;18.45;2.15;;;;;;;22.05;57.11;100193.56;7313428;19;130604;-38
2023/01/22 03:54:04;;;;;;;38.97;4.32;;;;;;;21.98;57.26;100208.97;7309727;19;129686;-40
2023/01/22 03:56:30;;;;;;;29.23;2.85;;;;;;;21.94;56.78;100205.75;7312517;19;128921;-39
2023/01/22 03:58:55;;;;;;;25.38;2.72;;;;;;;21.86;56.84;100200.34;7313896;19;129511;-38
2023/01/22 04:01:24;;;;;;;21.02;2.17;;;;;;;21.85;57.69;100209.13;7311642;19;129126;-38
2023/01/22 04:03:50;;;;;;;18.60;2.10;;;;;;;21.80;57.35;100203.44;7310434;19;129504;-37
2023/01/22 04:06:16;;;;;;;30.27;3.00;;;;;;;21.78;57.67;100213.19;7312790;19;129130;-39
2023/01/22 04:08:44;;;;;;;21.63;2.55;;;;;;;21.78;57.92;100201.91;7311497;19;129148;-39
2023/01/22 04:11:10;;;;;;;24.25;2.50;;;;;;;21.70;58.05;100205.13;7312467;19;129491;-37
2023/01/22 04:13:37;;;;;;;12.18;1.83;;;;;;;21.70;57.50;100215.56;7309591;19;129880;-38
2023/01/22 04:16:03;;;;;;;24.38;2.28;;;;;;;21.66;58.12;100210.72;7311522;19;128691;-38
2023/01/22 04:18:29;;;;;;;27.73;3.10;;;;;;;21.63;57.58;100211.81;7310486;19;129286;-39
2023/01/22 04:20:54;;;;;;;10.40;1.43;;;;;;;21.61;58.15;100215.50;7312415;19;129067;-36
2023/01/22 04:23:20;;;;;;;54.70;6.27;;;;;;;21.57;58.00;100217.53;7308702;19;129984;-38
2023/01/22 04:25:46;;;;;;;28.13;2.97;;;;;;;21.57;58.41;100214.91;7311587;19;129254;-39
2023/01/22 04:28:13;;;;;;;23.57;2.30;;;;;;;21.67;58.14;100218.44;7313072;19;129038;-39
2023/01/22 04:30:39;;;;;;;24.67;2.80;;;;;;;21.80;57.95;100219.13;7309680;19;129621;-38
2023/01/22 04:33:05;;;;;;;22.90;2.60;;;;;;;21.96;57.15;100222.16;7311949;19;130124;-40
2023/01/22 04:35:31;;;;;;;44.78;4.95;;;;;;;22.43;55.67;100222.63;7304227;19;129544;-34
2023/01/22 04:37:57;;;;;;;30.10;2.90;;;;;;;22.93;54.22;100233.06;7312359;19;129292;-36
2023/01/22 04:40:22;;;;;;;4.43;0.90;;;;;;;23.42;52.85;100227.00;7308042;19;129152;-37
2023/01/22 04:42:48;;;;;;;16.83;1.73;;;;;;;23.79;52.15;100230.63;7311439;19;129333;-37
2023/01/22 04:45:13;;;;;;;62.10;6.60;;;;;;;24.03;51.09;100222.38;7307567;19;129132;-40
2023/01/22 04:47:45;;;;;;;17.02;2.00;;;;;;;24.32;50.56;100223.97;7311833;19;129098;-35
2023/01/22 04:50:16;;;;;;;27.80;3.25;;;;;;;24.41;49.99;100217.84;7307520;19;129491;-40
2023/01/22 04:52:41;;;;;;;24.48;2.20;;;;;;;24.55;49.47;100219.19;7310514;19;130925;-40
2023/01/22 04:55:08;;;;;;;22.13;2.40;;;;;;;24.66;49.36;100221.63;7310619;19;129226;-37
2023/01/22 04:57:33;;;;;;;29.25;2.78;;;;;;;24.71;49.35;100227.31;7311948;19;128841;-39
2023/01/22 04:59:58;;;;;;;13.45;1.58;;;;;;;24.76;49.65;100226.91;7309992;19;129881;-38
2023/01/22 05:02:24;;;;;;;18.53;1.90;;;;;;;24.82;49.53;100236.84;7310691;19;129197;-37
2023/01/22 05:04:49;;;;;;;21.80;2.40;;;;;;;24.79;49.28;100230.03;7306959;19;129239;-38
2023/01/22 05:07:14;;;;;;;20.73;2.23;;;;;;;24.84;49.31;100234.91;7311107;19;129552;-40
2023/01/22 05:09:40;;;;;;;24.75;2.50;;;;;;;24.80;49.18;100236.16;7311969;19;129811;-37
2023/01/22 05:12:05;;;;;;;34.97;3.80;;;;;;;24.80;49.69;100234.34;7310499;19;130020;-39
2023/01/22 05:14:30;;;;;;;17.30;1.90;;;;;;;24.82;49.35;100236.84;7308973;19;129081;-38
2023/01/22 05:16:56;;;;;;;16.00;1.63;;;;;;;24.79;49.30;100234.50;7309818;19;128985;-38
2023/01/22 05:19:21;;;;;;;23.35;2.63;;;;;;;24.84;48.81;100240.97;7308618;19;129307;-39
2023/01/22 05:21:46;;;;;;;28.23;3.00;;;;;;;24.83;49.73;100235.84;7311074;19;129335;-40
2023/01/22 05:24:12;;;;;;;22.50;2.27;;;;;;;24.84;49.38;100234.91;7308650;19;129424;-37
2023/01/22 05:26:37;;;;;;;20.08;2.15;;;;;;;24.84;49.43;100250.69;7309966;19;129557;-40
2023/01/22 05:29:03;;;;;;;22.77;2.27;;;;;;;24.80;49.36;100244.88;7310561;19;129609;-38
2023/01/22 05:31:28;;;;;;;33.03;3.07;;;;;;;24.75;49.26;100248.91;7311656;19;129236;-38
2023/01/22 05:33:53;;;;;;;18.13;2.30;;;;;;;24.70;50.13;100249.34;7307816;19;128992;-40
2023/01/22 05:36:19;;;;;;;20.93;2.40;;;;;;;24.59;49.48;100251.28;7308723;19;129402;-39
2023/01/22 05:38:45;;;;;;;45.40;4.20;;;;;;;24.52;49.97;100247.56;7309554;19;129443;-41
2023/01/22 05:41:10;;;;;;;27.80;2.83;;;;;;;24.42;50.74;100256.31;7310899;19;129724;-36
2023/01/22 05:43:37;;;;;;;17.95;2.33;;;;;;;24.35;50.77;100249.97;7309642;19;129153;-40
2023/01/22 05:46:03;;;;;;;19.08;1.98;;;;;;;24.23;50.70;100261.59;7307807;19;129489;-40
2023/01/22 05:48:31;;;;;;;20.47;2.33;;;;;;;24.16;51.72;100264.94;7309669;19;129531;-37
2023/01/22 05:50:56;;;;;;;25.92;2.33;;;;;;;24.00;51.24;100259.38;7308397;19;131057;-38
2023/01/22 05:53:21;;;;;;;38.20;3.87;;;;;;;23.92;51.83;100256.59;7306925;19;128880;-37
2023/01/22 05:55:47;;;;;;;25.00;2.53;;;;;;;23.82;51.80;100266.28;7305574;19;129346;-39
2023/01/22 05:58:12;;;;;;;23.23;2.40;;;;;;;23.64;52.38;100253.00;7314891;19;130131;-38
2023/01/22 06:00:37;;;;;;;32.83;3.27;;;;;;;23.56;52.62;100258.13;7312210;19;129405;-38
2023/01/22 06:03:03;;;;;;;20.97;2.20;;;;;;;23.51;53.23;100278.69;7315091;19;129131;-40
2023/01/22 06:05:28;;;;;;;25.90;2.70;;;;;;;23.40;53.26;100275.34;7313998;19;129762;-38
2023/01/22 06:07:54;;;;;;;19.90;2.07;;;;;;;23.22;53.17;100254.16;7315714;19;129773;-40
2023/01/22 06:10:19;;;;;;;26.33;2.72;;;;;;;23.23;53.62;100269.75;7316671;19;130393;-40
2023/01/22 06:12:44;;;;;;;28.05;2.90;;;;;;;23.09;54.04;100266.66;7315990;19;129108;-39
2023/01/22 06:15:10;;;;;;;23.83;2.73;;;;;;;23.06;54.13;100272.16;7314688;19;129355;-38
2023/01/22 06:17:36;;;;;;;36.70;4.03;;;;;;;23.01;54.82;100285.69;7314664;19;130687;-38
2023/01/22 06:20:02;;;;;;;10.03;1.30;;;;;;;22.94;54.83;100275.88;7313691;19;129386;-38
2023/01/22 06:22:28;;;;;;;22.58;2.42;;;;;;;22.87;54.73;100290.47;7316422;19;130045;-37
2023/01/22 06:24:53;;;;;;;19.30;2.07;;;;;;;22.75;55.60;100276.59;7310221;19;128988;-39
2023/01/22 06:27:18;;;;;;;29.37;2.80;;;;;;;22.76;55.51;100290.50;7312710;19;129155;-39
2023/01/22 06:29:44;;;;;;;22.13;2.38;;;;;;;22.67;55.07;100291.31;7316247;19;130272;-41
2023/01/22 06:32:09;;;;;;;31.55;3.70;;;;;;;22.62;55.39;100296.13;7312915;19;130129;-37
2023/01/22 06:34:36;;;;;;;15.87;1.87;;;;;;;22.58;55.45;100286.84;7312621;19;129060;-40
2023/01/22 06:37:01;;;;;;;24.33;2.33;;;;;;;22.60;55.82;100308.50;7311240;19;130458;-38
2023/01/22 06:39:27;;;;;;;23.73;2.40;;;;;;;22.51;55.72;100298.78;7315364;19;129770;-38
2023/01/22 06:41:52;;;;;;;19.42;2.33;;;;;;;22.56;56.09;100315.78;7315293;19;129016;-40
2023/01/22 06:44:18;;;;;;;19.63;1.95;;;;;;;22.54;55.80;100322.97;7312532;19;129649;-39
2023/01/22 06:46:45;;;;;;;30.10;3.05;;;;;;;22.53;55.77;100313.44;7314495;19;130112;-38
2023/01/22 06:49:11;;;;;;;17.77;2.03;;;;;;;22.58;55.68;100320.91;7316290;19;131053;-41
2023/01/22 06:51:37;;;;;;;17.70;1.93;;;;;;;22.60;55.90;100319.00;7316178;19;130220;-38
2023/01/22 06:54:02;;;;;;;17.25;1.67;;;;;;;;;;7312053;19;129178;-40
2023/01/22 06:56:27;;;;;;;32.63;3.55;;;;;;;22.78;55.73;100327.94;7313120;19;130804;-39
2023/01/22 06:58:53;;;;;;;18.10;1.77;;;;;;;22.91;54.61;100339.03;7314975;19;130355;-38
2023/01/22 07:01:18;;;;;;;17.52;2.05;;;;;;;23.04;54.95;100337.88;7313969;19;129771;-39
2023/01/22 07:03:44;;;;;;;36.55;3.55;;;;;;;23.13;54.56;100333.63;7312013;19;129188;-38
2023/01/22 07:06:11;;;;;;;24.17;2.65;;;;;;;23.25;53.92;100336.03;7313753;19;130177;-37
2023/01/22 07:08:37;;;;;;;42.83;4.82;;;;;;;23.33;53.46;100343.28;7311994;19;130038;-37
2023/01/22 07:11:03;;;;;;;24.03;2.30;;;;;;;23.32;53.74;100351.28;7313807;19;129086;-37
2023/01/22 07:13:28;;;;;;;28.07;2.67;;;;;;;23.26;53.87;100355.22;7313793;19;129274;-38
2023/01/22 07:15:54;;;;;;;36.28;3.45;;;;;;;23.31;53.70;100353.06;7310980;19;130420;-40
2023/01/22 07:18:22;;;;;;;17.50;1.90;;;;;;;23.30;53.42;100358.44;7314168;19;130394;-38
2023/01/22 07:20:48;;;;;;;22.92;2.45;;;;;;;23.34;53.49;100350.19;7312321;19;130061;-39
2023/01/22 07:23:13;;;;;;;42.13;4.30;;;;;;;23.40;53.43;100354.91;7311464;19;129019;-39
2023/01/22 07:25:39;;;;;;;23.65;2.55;;;;;;;23.38;53.08;100356.00;7312560;19;129616;-38
2023/01/22 07:28:05;;;;;;;17.73;1.93;;;;;;;23.44;53.06;100355.44;7314183;19;130060;-41
2023/01/22 07:30:31;;;;;;;21.15;2.35;;;;;;;23.49;53.54;100358.50;7313183;19;131023;-37
2023/01/22 07:32:59;;;;;;;29.33;2.70;;;;;;;23.51;53.06;100357.44;7313916;19;129433;-37
2023/01/22 07:35:24;;;;;;;65.25;7.15;;;;;;;23.58;53.14;100362.97;7312103;19;129241;-40
2023/01/22 07:37:51;;;;;;;21.30;2.23;;;;;;;23.58;52.62;100361.19;7313129;19;130713;-39
2023/01/22 07:40:17;;;;;;;28.52;2.88;;;;;;;23.58;52.94;100362.97;7311961;19;129003;-37
2023/01/22 07:42:42;;;;;;;20.23;2.00;;;;;;;23.63;53.23;100366.88;7308925;19;129344;-39
2023/01/22 07:45:08;;;;;;;23.67;2.60;;;;;;;23.66;52.75;100371.00;7313885;19;129790;-37
2023/01/22 07:47:33;;;;;;;86.65;9.13;;;;;;;23.69;52.63;100374.19;7293298;19;130181;-37
2023/01/22 07:49:59;;;;;;;18.73;1.80;;;;;;;23.68;52.64;100380.44;7299433;19;129759;-39
2023/01/22 07:52:24;;;;;;;40.55;3.85;;;;;;;23.70;52.41;100383.72;7309956;19;128993;-40
2023/01/22 07:54:49;;;;;;;22.10;2.27;;;;;;;23.78;52.28;100393.56;7305939;19;129225;-39
2023/01/22 07:57:15;;;;;;;37.33;4.15;;;;;;;23.79;52.16;100398.69;7308340;19;129865;-40
2023/01/22 07:59:41;;;;;;;30.67;2.87;;;;;;;23.77;52.54;100395.34;7305981;19;129807;-35
2023/01/22 08:02:11;;;;;;;23.37;2.10;;;;;;;23.78;52.29;100396.19;7308797;19;129749;-38
2023/01/22 08:04:36;;;;;;;26.50;2.55;;;;;;;23.70;53.04;100402.09;7309586;19;130648;-39
2023/01/22 08:07:02;;;;;;;15.53;1.63;;;;;;;23.64;52.46;100397.41;7311998;19;130526;-35
2023/01/22 08:09:27;;;;;;;22.13;2.70;;;;;;;23.59;53.37;100402.22;7311877;19;129403;-40
2023/01/22 08:11:52;;;;;;;33.50;3.40;;;;;;;23.53;53.29;100401.91;7306342;19;129623;-38
2023/01/22 08:14:19;;;;;;;22.23;2.50;;;;;;;23.51;52.94;100402.06;7311016;19;129344;-38
2023/01/22 08:16:44;;;;;;;25.38;2.45;;;;;;;23.48;53.13;100412.81;7308131;19;130479;-41
2023/01/22 08:19:09;;;;;;;23.95;2.30;;;;;;;23.52;53.33;100416.00;7307961;19;129407;-38
2023/01/22 08:21:35;;;;;;;44.35;4.72;;;;;;;23.52;53.25;100416.81;7310683;19;129012;-38
2023/01/22 08:24:00;;;;;;;20.07;2.07;;;;;;;23.56;53.15;100422.66;7309179;19;129516;-41
2023/01/22 08:26:25;;;;;;;18.98;2.10;;;;;;;23.55;52.92;100427.06;7311765;19;129679;-39
2023/01/22 08:28:51;;;;;;;40.37;3.77;;;;;;;23.58;53.35;100426.81;7311825;19;130462;-37
2023/01/22 08:31:16;;;;;;;18.67;2.00;;;;;;;23.57;53.47;100427.75;7309719;19;129089;-38
2023/01/22 08:33:41;;;;;;;25.40;2.83;;;;;;;23.59;52.76;100432.88;7311285;19;130266;-39
2023/01/22 08:36:07;;;;;;;19.60;2.20;;;;;;;23.63;52.93;100435.13;7311186;19;130362;-39
2023/01/22 08:38:32;;;;;;;28.43;2.80;;;;;;;23.64;53.05;100435.94;7311843;19;129535;-39
2023/01/22 08:40:58;;;;;;;26.17;2.45;;;;;;;23.70;52.80;100444.09;7310095;19;129139;-40
2023/01/22 08:43:23;;;;;;;21.63;2.33;;;;;;;23.62;52.53;100432.63;7310667;19;129215;-36
2023/01/22 08:45:48;;;;;;;14.80;1.70;;;;;;;23.73;52.86;100445.66;7310863;19;129815;-40
2023/01/22 08:48:14;;;;;;;30.75;2.92;;;;;;;23.74;52.81;100453.41;7308717;19;129083;-39
2023/01/22 08:50:40;;;;;;;20.57;1.93;;;;;;;23.74;52.95;100447.31;7312296;19;128973;-35
2023/01/22 08:53:05;;;;;;;21.13;2.20;;;;;;;23.68;52.52;100432.94;7307256;19;129884;-38
2023/01/22 08:55:30;;;;;;;42.25;4.45;;;;;;;23.81;52.86;100449.28;7310614;19;129211;-40
2023/01/22 08:57:56;;;;;;;31.93;2.93;;;;;;;23.76;52.91;100442.75;7311900;19;130208;-37
2023/01/22 09:00:22;;;;;;;10.80;1.67;;;;;;;23.68;52.04;100432.94;7309844;19;129124;-36
2023/01/22 09:02:48;;;;;;;17.67;1.90;;;;;;;23.77;53.08;100455.75;7310901;19;129558;-35
2023/01/22 09:05:14;;;;;;;28.20;3.27;;;;;;;23.66;52.84;100450.59;7310484;19;129397;-41
2023/01/22 09:07:40;;;;;;;21.03;2.13;;;;;;;23.57;53.47;100451.38;7310590;19;129032;-38
2023/01/22 09:10:07;;;;;;;16.90;1.83;;;;;;;23.51;53.09;100443.19;7311016;19;129291;-40
2023/01/22 09:12:33;;;;;;;19.13;2.38;;;;;;;23.41;53.36;100458.91;7310122;19;130353;-40
2023/01/22 09:14:58;;;;;;;25.53;2.77;;;;;;;23.42;52.56;100452.69;7300284;19;129697;-39
2023/01/22 09:17:24;;;;;;;32.45;3.63;;;;;;;23.43;53.29;100454.38;7307836;19;129668;-39
2023/01/22 09:19:49;;;;;;;24.20;2.57;;;;;;;23.44;53.45;100466.53;7309304;19;129292;-39
2023/01/22 09:22:15;;;;;;;21.98;2.45;;;;;;;23.42;52.50;100463.19;7308143;19;129076;-38
2023/01/22 09:24:40;;;;;;;19.20;2.17;;;;;;;23.39;52.50;100452.97;7301640;19;129639;-37
2023/01/22 09:27:07;;;;;;;18.53;1.97;;;;;;;23.45;52.81;100467.34;7310299;19;128840;-38
2023/01/22 09:29:32;;;;;;;19.40;2.50;;;;;;;23.40;53.02;100444.13;7305615;19;129920;-40
2023/01/22 09:31:58;;;;;;;38.60;4.23;;;;;;;23.49;52.54;100464.34;7305306;19;130098;-38
2023/01/22 09:34:23;;;;;;;31.17;3.00;;;;;;;23.44;53.04;100471.75;7307378;19;130527;-38
2023/01/22 09:36:49;;;;;;;26.27;3.03;;;;;;;23.52;52.54;100463.25;7290218;19;131626;-40
2023/01/22 09:39:14;;;;;;;28.43;3.17;;;;;;;23.54;52.35;100462.16;7308313;19;129572;-39
2023/01/22 09:41:45;;;;;;;49.53;5.13;;;;;;;23.58;52.21;100470.59;7301498;19;129842;-35
2023/01/22 09:44:21;;;;;;;54.80;5.72;;;;;;;23.51;51.68;100451.91;7304427;19;129716;-40
2023/01/22 09:46:57;;;;;;;67.32;7.20;;;;;;;23.52;51.66;100445.69;7302998;19;128971;-39
2023/01/22 09:49:28;;;;;;;25.88;3.13;;;;;;;23.58;51.65;100457.47;7307061;19;129623;-37
2023/01/22 09:52:01;;;;;;;40.80;3.95;;;;;;;23.67;51.38;100468.00;7306435;19;129647;-39
2023/01/22 09:54:28;;;;;;;32.25;4.20;;;;;;;23.69;51.22;100465.25;7304429;19;130555;-39
2023/01/22 09:57:02;;;;;;;44.30;4.65;;;;;;;23.71;51.18;100468.56;7300077;19;130288;-38
2023/01/22 09:59:35;;;;;;;35.95;4.22;;;;;;;23.70;51.94;100470.38;7306475;19;129815;-38
2023/01/22 10:02:17;;;;;;;42.22;4.45;;;;;;;23.64;52.27;100468.28;7302160;19;129404;-38
2023/01/22 10:04:45;;;;;;;51.28;5.75;;;;;;;23.55;52.68;100474.28;7303040;19;129625;-39
2023/01/22 10:07:18;;;;;;;14.68;2.15;;;;;;;23.44;52.41;100470.94;7305729;19;129335;-38
2023/01/22 10:09:49;;;;;;;25.45;3.22;;;;;;;23.43;53.15;100470.13;7307103;19;129430;-39
2023/01/22 10:12:15;;;;;;;29.00;3.20;;;;;;;23.40;53.17;100480.88;7308301;19;130218;-37
2023/01/22 10:14:42;;;;;;;26.40;3.00;;;;;;;23.36;53.04;100484.72;7306187;19;129672;-38
2023/01/22 10:17:31;;;;;;;34.83;3.65;;;;;;;23.40;53.16;100485.28;7300952;19;129102;-38
2023/01/22 10:20:02;;;;;;;21.00;2.67;;;;;;;23.39;53.33;100484.44;7308448;19;129372;-38
2023/01/22 10:22:27;;;;;;;37.97;3.90;;;;;;;23.44;53.13;100492.75;7302606;19;130352;-36
2023/01/22 10:24:54;;;;;;;32.30;3.47;;;;;;;23.34;52.87;100481.38;7305834;19;129569;-40
2023/01/22 10:27:24;;;;;;;46.33;5.22;;;;;;;23.48;52.75;100490.72;7307029;19;129528;-36
2023/01/22 10:30:23;;;;;;;31.00;3.75;;;;;;;23.47;52.77;100487.25;7307456;19;129704;-40
2023/01/22 10:33:03;;;;;;;29.55;3.28;;;;;;;23.55;52.50;100495.31;7304146;19;131210;-39
2023/01/22 10:35:30;;;;;;;37.47;4.07;;;;;;;23.58;52.70;100495.06;7306528;19;129606;-37
2023/01/22 10:37:57;;;;;;;25.73;3.05;;;;;;;23.61;52.41;100494.81;7307521;19;129716;-36
2023/01/22 10:40:39;;;;;;;41.17;4.95;;;;;;;23.55;53.12;100492.69;7304530;19;129081;-38
2023/01/22 10:43:14;;;;;;;19.88;2.38;;;;;;;23.64;52.64;100489.28;7310641;19;132834;-40
2023/01/22 10:46:01;;;;;;;46.50;5.20;;;;;;;23.70;52.47;100499.25;7310475;19;131550;-36
2023/01/22 10:48:27;;;;;;;30.58;3.50;;;;;;;23.77;52.44;100489.88;7312978;19;129402;-37
2023/01/22 10:51:11;;;;;;;17.73;2.65;;;;;;;23.80;52.42;100494.06;7311754;19;130698;-37
2023/01/22 10:53:43;;;;;;;28.50;3.60;;;;;;;23.74;51.94;100497.19;7312059;19;131659;-40
2023/01/22 10:56:10;;;;;;;19.40;2.70;;;;;;;23.72;52.75;100499.13;7309422;19;129705;-37
2023/01/22 10:58:38;;;;;;;17.70;2.45;;;;;;;23.63;52.45;100497.28;7312549;19;128928;-40
2023/01/22 11:01:19;;;;;;;34.28;3.85;;;;;;;23.47;52.98;100475.94;7308654;19;130145;-38
2023/01/22 11:03:45;;;;;;;48.55;5.25;;;;;;;23.49;53.16;100503.69;7311838;19;130639;-39
2023/01/22 11:06:30;;;;;;;31.50;3.47;;;;;;;23.49;53.19;100505.50;7310609;19;129408;-40
2023/01/22 11:09:16;;;;;;;18.13;2.40;;;;;;;23.41;53.66;100503.53;7314347;19;130445;-40
2023/01/22 11:11:48;;;;;;;37.08;4.35;;;;;;;23.45;53.11;100498.84;7311777;19;129531;-39
2023/01/22 11:14:23;;;;;;;29.35;3.88;;;;;;;23.40;53.16;100499.25;7309865;19;130704;-40
2023/01/22 11:16:52;;;;;;;34.58;4.18;;;;;;;23.42;53.37;100489.44;7310199;19;129267;-39
2023/01/22 11:19:22;;;;;;;32.22;3.72;;;;;;;23.46;53.50;100503.97;7309728;19;130339;-39